There are no active watches, warnings or advisories


Thunder radar more information blitzortung!


Rain radar more information rain snow radar


Visit our other weather sites:

Template documentation
and downloads

And another site



Nearby METAR Reports

  
KAVL - Asheville Regional Airprot, NC
Distance from station: S 11.7mi, 19km
Updated: Aug 18 2018 2:22 am
Mostly Cloudy
Mostly Cloudy  
 Wind from calm
Wind: Calm
Temperature:  70°F , 21°C
Dew Point:  70°F , 21°C
Humidity:  100%
Barometer:  30.14 inHg , 1020.7 hPa
Clouds:  Mostly Cloudy
Visibility:   10 miles , 16 km
Cloud details:  Mostly Cloudy 700 ft
2018/08/18 06:22 KAVL 180622Z AUTO 00000KT 10SM BKN007 21/21 A3014 RMK AO2 CIG 006V010 T02110206 $
KGSP - Greer (GSP Airport) SC USA
Distance from station: SSE 52mi, 84km
Updated: Aug 18 2018 1:53 am
Light rain, Overcast
Light rain, Overcast  
 Wind from SW
Wind: SW 9 mph , 15 km/h
Temperature:  73°F , 23°C
Dew Point:  73°F , 23°C
Humidity:  100%
Barometer:  30.10 inHg , 1019.3 hPa
Summary:  Light Rain
Clouds:  Overcast
Visibility:   9 miles , 14 km
Cloud details:  Partly Cloudy 1300 ft
Mostly Cloudy 5500 ft
Overcast 11000 ft
2018/08/18 05:53 KGSP 180553Z 22008KT 9SM -RA SCT013 BKN055 OVC110 23/23 A3010 RMK AO2 RAB39 SLP179 P0001 60001 T02330228 10278 20233 56011
KCLT - Charlotte, NC USA
Distance from station: ESE 92mi, 149km
Updated: Aug 18 2018 1:52 am
Few Clouds
Few Clouds  
 Wind from SW
Wind: SW 8 mph , 13 km/h
Temperature:  77°F , 25°C
Dew Point:  73°F , 23°C
Humidity:  89%
Barometer:  30.09 inHg , 1019 hPa
Clouds:  Few Clouds
Visibility:   10 miles , 16 km
Cloud details:  Few Clouds 5500 ft
Few Clouds 25000 ft
2018/08/18 05:52 KCLT 180552Z 22007KT 10SM FEW055 FEW250 25/23 A3009 RMK AO2 SLP179 T02500228 10283 20250 58004
KRHP - Andrews, Andrews-Murphy Airport, NC, USA
Distance from station: WSW 81mi, 130km
Updated: Aug 18 2018 2:10 am
Partly Cloudy
Partly Cloudy  
 Wind from NW
Wind: NW 3 mph , 6 km/h
Temperature:  68°F , 20°C
Dew Point:  68°F , 20°C
Humidity:  100%
Barometer:  30.14 inHg , 1020.7 hPa
Clouds:  Partly Cloudy
Visibility:   10 miles , 16 km
Cloud details:  Partly Cloudy 2300 ft
Partly Cloudy 3100 ft
Partly Cloudy 11000 ft
2018/08/18 06:10 KRHP 180610Z AUTO 32003KT 10SM SCT023 SCT031 SCT110 20/20 A3014 RMK AO2 T02030203
KHKY - Hickory Reginal Airport, NC, USA
Distance from station: E 65mi, 104km
Updated: Aug 18 2018 1:53 am
Clear
Clear  
 Wind from SSW
Wind: SSW 10 mph , 17 km/h
Temperature:  73°F , 23°C
Dew Point:  72°F , 22°C
Humidity:  94%
Barometer:  30.08 inHg , 1018.6 hPa
Clouds:  Clear
Visibility:   10 miles , 16 km
2018/08/18 05:53 KHKY 180553Z AUTO 20009KT 10SM CLR 23/22 A3008 RMK AO2 SLP161 T02280217 10256 20228 58008
KEHO - Shelby Municipal Airport, NC, USA
Distance from station: ESE 60mi, 96km
Updated: Aug 18 2018 2:10 am
Clear
Clear  
 Wind from SW
Wind: SW 3 mph , 6 km/h
Temperature:  73°F , 23°C
Dew Point:  72°F , 22°C
Humidity:  94%
Barometer:  30.09 inHg , 1019 hPa
Clouds:  Clear
Visibility:   10 miles , 16 km
2018/08/18 06:10 KEHO 180610Z AUTO 22003KT 10SM CLR 23/22 A3009 RMK AO2 T02300216
KATL - Atlanta, De Kalb-Peachtree Airport, GA, USA
Distance from station: SSW 172mi, 237km
Updated: Aug 18 2018 1:52 am
Mostly Cloudy
Mostly Cloudy  
 Wind from SW
Wind: SW 9 mph , 15 km/h
Temperature:  73°F , 23°C
Dew Point:  70°F , 21°C
Humidity:  89%
Barometer:  30.12 inHg , 1020 hPa
Clouds:  Mostly Cloudy
Visibility:   10 miles , 16 km
Cloud details:  Mostly Cloudy 900 ft
Mostly Cloudy 1400 ft
Mostly Cloudy 15000 ft
Mostly Cloudy 25000 ft
2018/08/18 05:52 KATL 180552Z 22008KT 10SM BKN009 BKN014 BKN150 BKN250 23/21 A3012 RMK AO2 SLP190 CIG 008V011 BKN009 V SCT 60000 T02330211 10278 20233 56008
KTYS - Knoxville, McGhee Tyson Airport, TN, USA
Distance from station: WNW 80mi, 130km
Updated: Aug 18 2018 1:53 am
Overcast
Overcast  
 Wind from SW
Wind: SW 8 mph , 13 km/h
Temperature:  72°F , 22°C
Dew Point:  70°F , 21°C
Humidity:  94%
Barometer:  30.06 inHg , 1017.9 hPa
Clouds:  Overcast
Visibility:   10 miles , 16 km
Cloud details:  Overcast 12000 ft
2018/08/18 05:53 KTYS 180553Z 22007KT 10SM OVC120 22/21 A3006 RMK AO2 RAE46 SLP168 P0002 60010 T02170211 10261 20217 58009
KRDU - Durham, Raleigh-Durham Airport, NC USA
Distance from station: E 205mi, 330km
Updated: Aug 18 2018 1:51 am
Few Clouds
Few Clouds  
 Wind from WSW
Wind: WSW 9 mph , 15 km/h
Temperature:  77°F , 25°C
Dew Point:  72°F , 22°C
Humidity:  83%
Barometer:  30.06 inHg , 1017.9 hPa
Clouds:  Few Clouds
Visibility:   10 miles , 16 km
Cloud details:  Few Clouds 15000 ft
2018/08/18 05:51 KRDU 180551Z 24008KT 10SM FEW150 25/22 A3006 RMK AO2 SLP172 T02500217 10289 20250 58002
 

Script developed by  Saratoga-weather.org Adapted for the template by  Weerstation Leuven

You find our weather info also at:


Weather Underground

AWEKAS

Citizen Weather Observer Program (CWOP)

HAMweather, WeatherForYou, PWS Weather

Equipment we use:


Weather-station
Davis VP2

Weather-program
Weather Display

Weather-server
Dell Poweredge SC420

Provider
1&1

Davis VP2

Weather Display

Dell Poweredge SC420

1&1